createdAt,value
2022-11-10T00:01:15.455Z,101448.88
2022-11-10T00:04:04.586Z,101453.53
2022-11-10T00:06:50.530Z,101450.56
2022-11-10T00:09:37.055Z,101458.56
2022-11-10T00:12:23.865Z,101452.16
2022-11-10T00:15:29.870Z,101452.25
2022-11-10T00:18:15.798Z,101465.59
2022-11-10T00:21:07.951Z,101449.06
2022-11-10T00:23:53.834Z,101455.06
2022-11-10T00:26:40.065Z,101459.09
2022-11-10T00:29:26.776Z,101460.06
2022-11-10T00:32:14.640Z,101456.78
2022-11-10T00:35:00.895Z,101458.03
2022-11-10T00:37:50.546Z,101461.13
2022-11-10T00:40:37.107Z,101459.66
2022-11-10T00:43:26.519Z,101460.25
2022-11-10T00:46:13.757Z,101456.88
2022-11-10T00:49:00.018Z,101460.88
2022-11-10T00:51:47.218Z,101452.34
2022-11-10T00:54:33.663Z,101455.41
2022-11-10T00:57:19.859Z,101455.50
2022-11-10T01:00:06.960Z,101463.03
2022-11-10T01:02:53.215Z,101457.53
2022-11-10T01:05:39.455Z,101459.44
2022-11-10T01:08:25.965Z,101455.00
2022-11-10T01:11:17.577Z,101452.16
2022-11-10T01:14:03.567Z,101456.25
2022-11-10T01:16:50.959Z,101456.16
2022-11-10T01:19:36.863Z,101455.72
2022-11-10T01:22:23.314Z,101459.66
2022-11-10T01:25:09.932Z,101459.56
2022-11-10T01:27:56.419Z,101460.06
2022-11-10T01:30:42.803Z,101461.47
2022-11-10T01:33:29.191Z,101453.22
2022-11-10T01:36:15.475Z,101458.09
2022-11-10T01:39:01.331Z,101456.59
2022-11-10T01:41:47.512Z,101455.31
2022-11-10T01:44:35.146Z,101464.91
2022-11-10T01:47:21.538Z,101459.88
2022-11-10T01:50:08.839Z,101456.94
2022-11-10T01:53:00.119Z,101450.63
2022-11-10T01:55:48.827Z,101449.34
2022-11-10T01:58:40.238Z,101454.81
2022-11-10T02:01:26.995Z,101446.47
2022-11-10T02:04:16.956Z,101446.47
2022-11-10T02:07:04.998Z,101446.22
2022-11-10T02:09:53.923Z,101457.88
2022-11-10T02:12:40.829Z,101446.97
2022-11-10T02:15:26.847Z,101448.53
2022-11-10T02:18:13.053Z,101445.91
2022-11-10T02:20:59.631Z,101447.28
2022-11-10T02:23:51.505Z,101449.41
2022-11-10T02:26:44.340Z,101451.31
2022-11-10T02:29:30.268Z,101441.97
2022-11-10T02:32:16.302Z,101439.88
2022-11-10T02:35:02.575Z,101439.97
2022-11-10T02:37:49.678Z,101443.84
2022-11-10T02:40:37.008Z,101447.47
2022-11-10T02:43:23.929Z,101451.28
2022-11-10T02:46:10.632Z,101452.84
2022-11-10T02:48:56.986Z,101451.88
2022-11-10T02:51:43.116Z,101461.34
2022-11-10T02:54:29.030Z,101463.78
2022-11-10T02:57:14.910Z,101460.41
2022-11-10T03:00:00.956Z,101466.75
2022-11-10T03:02:47.064Z,101467.72
2022-11-10T03:05:33.456Z,101466.59
2022-11-10T03:08:20.100Z,101473.81
2022-11-10T03:11:06.504Z,101471.91
2022-11-10T03:14:01.605Z,101470.59
2022-11-10T03:16:48.772Z,101470.69
2022-11-10T03:19:35.315Z,101474.78
2022-11-10T03:22:21.948Z,101477.13
2022-11-10T03:25:08.991Z,101488.44
2022-11-10T03:27:54.839Z,101490.56
2022-11-10T03:30:41.196Z,101495.47
2022-11-10T03:33:27.605Z,101495.72
2022-11-10T03:36:14.295Z,101501.72
2022-11-10T03:39:01.419Z,101500.69
2022-11-10T03:41:47.578Z,101502.66
2022-11-10T03:44:34.196Z,101503.72
2022-11-10T03:47:20.700Z,101505.19
2022-11-10T03:50:08.132Z,101509.97
2022-11-10T03:52:54.575Z,101508.84
2022-11-10T03:55:40.359Z,101517.75
2022-11-10T03:58:26.265Z,101524.56
2022-11-10T04:01:12.890Z,101524.34
2022-11-10T04:03:59.277Z,101527.72
2022-11-10T04:07:04.759Z,101534.34
2022-11-10T04:09:50.680Z,101536.56
2022-11-10T04:12:55.079Z,101541.47
2022-11-10T04:15:42.162Z,101539.84
2022-11-10T04:18:29.900Z,101544.38
2022-11-10T04:21:15.952Z,101554.88
2022-11-10T04:24:02.422Z,101552.44
2022-11-10T04:26:49.023Z,101557.59
2022-11-10T04:29:35.843Z,101558.41
2022-11-10T04:32:22.422Z,101553.44
2022-11-10T04:35:09.859Z,101560.59
2022-11-10T04:37:56.092Z,101562.97
2022-11-10T04:40:42.925Z,101569.03
2022-11-10T04:43:29.349Z,101572.31
2022-11-10T04:46:27.718Z,101573.00
2022-11-10T04:49:14.136Z,101575.28
2022-11-10T04:52:00.501Z,101577.84
2022-11-10T04:54:47.112Z,101577.00
2022-11-10T04:57:33.348Z,101581.09
2022-11-10T05:00:19.349Z,101573.50
2022-11-10T05:03:09.549Z,101574.72
2022-11-10T05:05:55.840Z,101573.97
2022-11-10T05:08:42.914Z,101579.44
2022-11-10T05:11:29.829Z,101577.75
2022-11-10T05:14:16.705Z,101577.00
2022-11-10T05:17:02.881Z,101576.81
2022-11-10T05:19:49.172Z,101576.56
2022-11-10T05:22:35.202Z,101575.28
2022-11-10T05:25:21.319Z,101579.63
2022-11-10T05:28:09.047Z,101587.88
2022-11-10T05:30:55.392Z,101592.22
2022-11-10T05:33:41.507Z,101586.22
2022-11-10T05:36:28.017Z,101599.91
2022-11-10T05:39:14.954Z,101603.31
2022-11-10T05:42:01.041Z,101603.69
2022-11-10T05:44:47.339Z,101605.38
2022-11-10T05:47:37.181Z,101606.88
2022-11-10T05:50:24.207Z,101611.50
2022-11-10T05:53:10.255Z,101615.81
2022-11-10T05:55:56.326Z,101616.00
2022-11-10T05:58:43.580Z,101617.97
2022-11-10T06:01:32.414Z,101630.38
2022-11-10T06:04:18.810Z,101630.38
2022-11-10T06:07:04.963Z,101640.84
2022-11-10T06:09:51.578Z,101642.09
2022-11-10T06:13:04.075Z,101644.03
2022-11-10T06:15:50.670Z,101659.94
2022-11-10T06:18:36.999Z,101660.50
2022-11-10T06:21:22.952Z,101667.38
2022-11-10T06:24:10.651Z,101670.94
2022-11-10T06:26:56.700Z,101674.91
2022-11-10T06:29:42.919Z,101681.09
2022-11-10T06:32:29.227Z,101681.72
2022-11-10T06:35:16.084Z,101694.56
2022-11-10T06:38:04.804Z,101696.16
2022-11-10T06:40:51.309Z,101704.13
2022-11-10T06:43:37.828Z,101702.38
2022-11-10T06:46:23.763Z,101705.56
2022-11-10T06:49:09.691Z,101707.34
2022-11-10T06:51:59.279Z,101708.84
2022-11-10T06:54:46.094Z,101707.53
2022-11-10T06:57:40.768Z,101704.81
2022-11-10T07:00:28.962Z,101705.06
2022-11-10T07:03:16.493Z,101716.16
2022-11-10T07:06:02.750Z,101717.44
2022-11-10T07:08:49.378Z,101716.50
2022-11-10T07:11:35.188Z,101722.38
2022-11-10T07:14:21.849Z,101730.94
2022-11-10T07:17:07.932Z,101720.31
2022-11-10T07:19:53.744Z,101721.91
2022-11-10T07:22:39.469Z,101728.72
2022-11-10T07:25:26.095Z,101734.78
2022-11-10T07:28:12.952Z,101743.66
2022-11-10T07:31:05.264Z,101745.53
2022-11-10T07:33:54.500Z,101752.13
2022-11-10T07:36:40.812Z,101761.19
2022-11-10T07:39:27.061Z,101764.31
2022-11-10T07:42:12.862Z,101771.03
2022-11-10T07:44:59.663Z,101765.38
2022-11-10T07:47:45.591Z,101770.47
2022-11-10T07:50:33.851Z,101768.69
2022-11-10T07:53:21.442Z,101769.63
2022-11-10T07:56:08.205Z,101765.66
2022-11-10T07:58:53.907Z,101765.38
2022-11-10T08:01:39.903Z,101776.22
2022-11-10T08:04:26.046Z,101767.63
2022-11-10T08:07:12.452Z,101777.91
2022-11-10T08:09:58.740Z,101769.09
2022-11-10T08:12:44.471Z,101772.91
2022-11-10T08:15:32.068Z,101785.13
2022-11-10T08:18:23.190Z,101787.44
2022-11-10T08:21:09.521Z,101782.44
2022-11-10T08:23:55.691Z,101789.75
2022-11-10T08:26:41.972Z,101793.56
2022-11-10T08:29:28.615Z,101802.56
2022-11-10T08:32:14.587Z,101806.16
2022-11-10T08:35:00.905Z,101812.38
2022-11-10T08:37:46.696Z,101819.50
2022-11-10T08:40:32.784Z,101826.06
2022-11-10T08:43:19.096Z,101829.84
2022-11-10T08:46:05.959Z,101829.38
2022-11-10T08:48:51.933Z,101834.28
2022-11-10T08:51:39.370Z,101847.75
2022-11-10T08:54:25.730Z,101857.16
2022-11-10T08:57:11.830Z,101861.34
2022-11-10T08:59:58.063Z,101861.47
2022-11-10T09:02:43.883Z,101875.75
2022-11-10T09:05:31.278Z,101877.03
2022-11-10T09:08:17.879Z,101885.59
2022-11-10T09:11:04.530Z,101891.53
2022-11-10T09:13:50.919Z,101901.09
2022-11-10T09:16:37.158Z,101901.00
2022-11-10T09:19:23.633Z,101898.72
2022-11-10T09:22:09.783Z,101911.19
2022-11-10T09:24:56.582Z,101914.06
2022-11-10T09:27:42.299Z,101923.38
2022-11-10T09:30:29.161Z,101918.81
2022-11-10T09:33:15.944Z,101929.31
2022-11-10T09:36:02.826Z,101925.28
2022-11-10T09:38:49.940Z,101934.06
2022-11-10T09:41:40.631Z,101930.34
2022-11-10T09:44:52.060Z,101935.03
2022-11-10T09:48:05.269Z,101942.09
2022-11-10T09:50:57.207Z,101949.88
2022-11-10T09:53:55.369Z,101949.19
2022-11-10T09:56:41.789Z,101959.16
2022-11-10T09:59:32.346Z,101959.63
2022-11-10T10:02:38.652Z,101974.44
2022-11-10T10:05:33.890Z,101971.69
2022-11-10T10:08:27.074Z,101971.72
2022-11-10T10:11:18.650Z,101967.19
2022-11-10T10:14:32.351Z,101964.81
2022-11-10T10:17:48.917Z,101969.47
2022-11-10T10:21:11.894Z,101970.56
2022-11-10T10:24:13.932Z,101965.56
2022-11-10T10:27:07.457Z,101962.09
2022-11-10T10:29:53.934Z,101965.97
2022-11-10T10:32:41.384Z,101972.44
2022-11-10T10:35:28.413Z,101975.00
2022-11-10T10:41:10.601Z,101973.34
2022-11-10T10:43:59.710Z,101960.50
2022-11-10T10:47:06.350Z,101956.03
2022-11-10T10:49:52.705Z,101952.69
2022-11-10T10:52:38.785Z,101963.19
2022-11-10T10:55:30.522Z,101960.94
2022-11-10T10:58:37.114Z,101960.91
2022-11-10T11:01:37.310Z,101964.34
2022-11-10T11:04:36.108Z,101967.38
2022-11-10T11:07:24.221Z,101970.84
2022-11-10T11:10:21.217Z,101983.78
2022-11-10T11:13:23.987Z,101991.56
2022-11-10T11:16:12.688Z,101992.72
2022-11-10T11:18:59.604Z,101997.91
2022-11-10T11:22:37.701Z,102005.81
2022-11-10T11:25:36.217Z,102000.41
2022-11-10T11:28:40.996Z,102003.84
2022-11-10T11:31:42.717Z,102007.25
2022-11-10T11:34:35.347Z,102004.09
2022-11-10T11:37:33.791Z,101998.75
2022-11-10T11:40:38.791Z,102007.94
2022-11-10T11:43:49.967Z,102010.31
2022-11-10T11:46:52.575Z,102010.66
2022-11-10T11:50:08.123Z,102005.72
2022-11-10T11:53:20.416Z,102015.44
2022-11-10T11:56:23.677Z,102023.28
2022-11-10T11:59:21.024Z,102022.47
2022-11-10T12:02:33.478Z,102023.88
2022-11-10T12:05:30.734Z,102028.38
2022-11-10T12:08:36.832Z,102035.59
2022-11-10T12:11:55.863Z,102023.59
2022-11-10T12:14:54.735Z,102035.47
2022-11-10T12:17:51.780Z,102042.41
2022-11-10T12:20:51.788Z,102038.50
2022-11-10T12:24:12.594Z,102046.00
2022-11-10T12:27:04.930Z,102044.09
2022-11-10T12:29:57.029Z,102050.59
2022-11-10T12:32:53.727Z,102056.03
2022-11-10T12:35:44.451Z,102061.06
2022-11-10T12:39:09.978Z,102062.53
2022-11-10T12:41:59.660Z,102074.47
2022-11-10T12:45:00.514Z,102068.00
2022-11-10T12:47:48.545Z,102071.47
2022-11-10T12:50:42.846Z,102074.72
2022-11-10T12:53:41.804Z,102074.94
2022-11-10T12:56:39.182Z,102068.44
2022-11-10T12:59:30.276Z,102081.66
2022-11-10T13:02:23.260Z,102083.47
2022-11-10T13:05:15.567Z,102090.94
2022-11-10T13:08:14.180Z,102087.75
2022-11-10T13:11:12.198Z,102077.03
2022-11-10T13:14:21.329Z,102076.75
2022-11-10T13:17:10.264Z,102093.31
2022-11-10T13:20:09.597Z,102092.13
2022-11-10T13:23:23.194Z,102086.63
2022-11-10T13:26:41.127Z,102094.66
2022-11-10T13:29:42.885Z,102092.97
2022-11-10T13:32:34.266Z,102099.06
2022-11-10T13:35:30.093Z,102101.66
2022-11-10T13:38:36.874Z,102102.91
2022-11-10T13:41:26.381Z,102099.34
2022-11-10T13:44:33.348Z,102098.19
2022-11-10T13:47:58.683Z,102105.91
2022-11-10T13:51:22.990Z,102113.22
2022-11-10T13:54:30.884Z,102125.88
2022-11-10T13:57:36.633Z,102112.44
2022-11-10T14:00:26.985Z,102121.38
2022-11-10T14:03:45.166Z,102122.44
2022-11-10T14:06:37.717Z,102120.72
2022-11-10T14:09:46.582Z,102126.16
2022-11-10T14:12:46.594Z,102132.53
2022-11-10T14:15:47.888Z,102137.13
2022-11-10T14:18:47.966Z,102140.75
2022-11-10T14:21:47.579Z,102151.38
2022-11-10T14:24:48.771Z,102152.50
2022-11-10T14:27:38.875Z,102158.13
2022-11-10T14:30:30.173Z,102156.81
2022-11-10T14:33:16.518Z,102163.94
2022-11-10T14:36:06.540Z,102164.34
2022-11-10T14:38:53.587Z,102176.25
2022-11-10T14:41:47.799Z,102170.88
2022-11-10T14:44:35.392Z,102174.41
2022-11-10T14:47:31.325Z,102176.78
2022-11-10T14:50:20.554Z,102191.38
2022-11-10T14:53:21.309Z,102185.28
2022-11-10T14:56:15.979Z,102183.38
2022-11-10T14:59:05.287Z,102196.31
2022-11-10T15:02:01.082Z,102205.75
2022-11-10T15:04:50.380Z,102208.28
2022-11-10T15:07:36.817Z,102216.78
2022-11-10T15:10:26.993Z,102221.69
2022-11-10T15:13:14.274Z,102223.56
2022-11-10T15:16:25.594Z,102227.00
2022-11-10T15:19:29.937Z,102231.34
2022-11-10T15:22:32.663Z,102223.28
2022-11-10T15:25:22.512Z,102228.38
2022-11-10T15:28:28.111Z,102233.25
2022-11-10T15:31:26.790Z,102234.25
2022-11-10T15:34:47.726Z,102241.66
2022-11-10T15:37:34.585Z,102241.97
2022-11-10T15:40:41.152Z,102251.13
2022-11-10T15:43:28.061Z,102254.47
2022-11-10T15:46:21.442Z,102256.09
2022-11-10T15:49:35.974Z,102254.31
2022-11-10T15:52:23.907Z,102254.13
2022-11-10T15:55:24.033Z,102253.13
2022-11-10T15:58:19.703Z,102252.56
2022-11-10T16:01:06.758Z,102250.41
2022-11-10T16:03:53.126Z,102247.88
2022-11-10T16:06:40.134Z,102243.56
2022-11-10T16:09:26.453Z,102237.09
2022-11-10T16:12:22.785Z,102243.88
2022-11-10T16:15:18.388Z,102266.81
2022-11-10T16:18:09.114Z,102269.19
2022-11-10T16:20:56.431Z,102288.22
2022-11-10T16:23:43.826Z,102290.13
2022-11-10T16:26:30.973Z,102303.03
2022-11-10T16:29:19.862Z,102308.94
2022-11-10T16:32:07.262Z,102317.44
2022-11-10T16:34:55.263Z,102320.63
2022-11-10T16:37:43.270Z,102327.31
2022-11-10T16:40:30.558Z,102331.28
2022-11-10T16:43:18.061Z,102333.19
2022-11-10T16:46:15.469Z,102352.63
2022-11-10T16:49:04.834Z,102348.69
2022-11-10T16:51:51.298Z,102341.13
2022-11-10T16:54:38.359Z,102346.88
2022-11-10T16:57:24.796Z,102360.50
2022-11-10T17:00:12.786Z,102351.28
2022-11-10T17:03:30.760Z,102360.41
2022-11-10T17:06:19.974Z,102351.88
2022-11-10T17:09:26.748Z,102356.44
2022-11-10T17:12:14.865Z,102360.78
2022-11-10T17:15:01.294Z,102369.72
2022-11-10T17:17:52.411Z,102368.44
2022-11-10T17:20:43.907Z,102379.09
2022-11-10T17:23:30.397Z,102374.91
2022-11-10T17:26:20.171Z,102375.25
2022-11-10T17:29:06.819Z,102368.03
2022-11-10T17:31:54.307Z,102379.00
2022-11-10T17:34:41.588Z,102372.72
2022-11-10T17:37:28.058Z,102379.44
2022-11-10T17:40:18.963Z,102386.13
2022-11-10T17:43:05.812Z,102396.19
2022-11-10T17:45:52.814Z,102398.22
2022-11-10T17:48:39.836Z,102402.97
2022-11-10T17:51:26.588Z,102409.78
2022-11-10T17:54:15.187Z,102412.41
2022-11-10T17:57:04.533Z,102422.28
2022-11-10T17:59:51.135Z,102421.63
2022-11-10T18:02:37.565Z,102426.59
2022-11-10T18:05:24.098Z,102433.88
2022-11-10T18:08:12.422Z,102438.50
2022-11-10T18:11:00.980Z,102437.94
2022-11-10T18:13:47.301Z,102441.91
2022-11-10T18:16:34.693Z,102441.44
2022-11-10T18:19:21.396Z,102454.28
2022-11-10T18:22:11.336Z,102457.13
2022-11-10T18:24:58.580Z,102450.22
2022-11-10T18:27:45.928Z,102448.81
2022-11-10T18:30:35.255Z,102453.31
2022-11-10T18:33:22.696Z,102458.13
2022-11-10T18:36:09.716Z,102468.59
2022-11-10T18:38:56.572Z,102458.44
2022-11-10T18:41:49.090Z,102468.06
2022-11-10T18:44:37.246Z,102470.91
2022-11-10T18:47:24.140Z,102485.13
2022-11-10T18:50:13.276Z,102487.84
2022-11-10T18:53:00.448Z,102484.09
2022-11-10T18:55:56.822Z,102482.63
2022-11-10T18:58:44.343Z,102490.22
2022-11-10T19:01:31.974Z,102486.75
2022-11-10T19:04:19.191Z,102484.88
2022-11-10T19:07:06.508Z,102503.66
2022-11-10T19:09:54.353Z,102502.47
2022-11-10T19:12:41.133Z,102500.38
2022-11-10T19:15:27.669Z,102492.72
2022-11-10T19:18:14.420Z,102494.72
2022-11-10T19:21:27.665Z,102499.22
2022-11-10T19:24:21.892Z,102510.84
2022-11-10T19:27:14.287Z,102522.69
2022-11-10T19:30:04.062Z,102525.25
2022-11-10T19:32:50.958Z,102526.66
2022-11-10T19:35:42.022Z,102529.31
2022-11-10T19:38:29.125Z,102534.50
2022-11-10T19:41:20.002Z,102541.09
2022-11-10T19:44:06.786Z,102547.22
2022-11-10T19:46:53.993Z,102542.03
2022-11-10T19:49:41.037Z,102544.50
2022-11-10T19:52:27.399Z,102545.34
2022-11-10T19:55:13.367Z,102549.13
2022-11-10T19:57:59.663Z,102549.31
2022-11-10T20:00:47.924Z,102552.69
2022-11-10T20:03:35.109Z,102550.50
2022-11-10T20:06:23.761Z,102556.13
2022-11-10T20:09:10.212Z,102556.19
2022-11-10T20:11:56.503Z,102561.25
2022-11-10T20:14:43.882Z,102563.16
2022-11-10T20:17:29.976Z,102564.31
2022-11-10T20:20:17.452Z,102574.19
2022-11-10T20:23:06.672Z,102584.16
2022-11-10T20:26:12.174Z,102588.00
2022-11-10T20:28:58.999Z,102598.09
2022-11-10T20:31:45.656Z,102603.22
2022-11-10T20:34:32.812Z,102614.00
2022-11-10T20:37:19.909Z,102600.34
2022-11-10T20:40:18.901Z,102616.53
2022-11-10T20:43:17.174Z,102622.47
2022-11-10T20:46:06.378Z,102624.16
2022-11-10T20:48:53.138Z,102624.75
2022-11-10T20:51:40.391Z,102620.31
2022-11-10T20:54:27.795Z,102625.22
2022-11-10T20:57:14.605Z,102621.91
2022-11-10T21:00:09.501Z,102630.50
2022-11-10T21:02:59.398Z,102626.72
2022-11-10T21:05:47.322Z,102627.28
2022-11-10T21:08:39.651Z,102617.47
2022-11-10T21:11:48.289Z,102620.09
2022-11-10T21:14:37.151Z,102620.56
2022-11-10T21:17:25.487Z,102613.38
2022-11-10T21:20:16.467Z,102607.59
2022-11-10T21:23:06.946Z,102602.22
2022-11-10T21:25:57.701Z,102604.69
2022-11-10T21:28:44.617Z,102602.66
2022-11-10T21:31:39.724Z,102604.63
2022-11-10T21:34:27.943Z,102610.13
2022-11-10T21:37:17.241Z,102600.91
2022-11-10T21:40:07.287Z,102608.00
2022-11-10T21:43:00.070Z,102609.88
2022-11-10T21:45:52.031Z,102608.75
2022-11-10T21:48:42.033Z,102601.78
2022-11-10T21:51:35.789Z,102616.66
2022-11-10T21:54:25.837Z,102612.56
2022-11-10T21:57:26.775Z,102616.81
2022-11-10T22:00:24.786Z,102620.19
2022-11-10T22:03:12.333Z,102618.84
2022-11-10T22:06:06.533Z,102611.75
2022-11-10T22:09:06.621Z,102623.19
2022-11-10T22:12:26.230Z,102634.84
2022-11-10T22:15:33.880Z,102631.88
2022-11-10T22:18:41.383Z,102632.13
2022-11-10T22:21:28.934Z,102639.25
2022-11-10T22:24:27.025Z,102642.13
2022-11-10T22:27:13.814Z,102644.66
2022-11-10T22:30:01.863Z,102642.34
2022-11-10T22:32:49.659Z,102643.41
2022-11-10T22:35:46.193Z,102648.56
2022-11-10T22:38:43.167Z,102659.28
2022-11-10T22:41:48.538Z,102649.72
2022-11-10T22:44:36.368Z,102652.59
2022-11-10T22:47:23.695Z,102652.91
2022-11-10T22:50:10.998Z,102657.28
2022-11-10T22:52:57.729Z,102660.09
2022-11-10T22:55:47.797Z,102656.84
2022-11-10T22:58:35.609Z,102665.38
2022-11-10T23:01:22.776Z,102655.88
2022-11-10T23:04:11.083Z,102649.88
2022-11-10T23:06:58.674Z,102654.31
2022-11-10T23:09:46.877Z,102655.47
2022-11-10T23:12:33.716Z,102648.34
2022-11-10T23:15:20.468Z,102655.91
2022-11-10T23:18:07.104Z,102643.66
2022-11-10T23:21:02.077Z,102651.28
2022-11-10T23:24:00.275Z,102640.31
2022-11-10T23:26:50.460Z,102649.47
2022-11-10T23:29:37.521Z,102651.41
2022-11-10T23:32:24.483Z,102661.16
2022-11-10T23:35:18.362Z,102652.22
2022-11-10T23:38:05.920Z,102653.38
2022-11-10T23:40:56.320Z,102657.97
2022-11-10T23:43:44.532Z,102663.22
2022-11-10T23:46:36.412Z,102669.47
2022-11-10T23:49:23.321Z,102673.84
2022-11-10T23:52:09.803Z,102675.66
2022-11-10T23:55:00.089Z,102671.44
2022-11-10T23:57:48.256Z,102687.22
